createdAt,value
2019-05-01T00:00:23.361Z,9.60
2019-05-01T00:03:14.487Z,11.53
2019-05-01T00:05:46.375Z,9.90
2019-05-01T00:08:15.685Z,11.80
2019-05-01T00:10:44.514Z,10.85
2019-05-01T00:13:13.515Z,10.80
2019-05-01T00:15:43.016Z,10.50
2019-05-01T00:18:12.049Z,12.37
2019-05-01T00:20:40.912Z,12.10
2019-05-01T00:23:09.954Z,14.28
2019-05-01T00:25:38.888Z,13.75
2019-05-01T00:28:08.526Z,13.20
2019-05-01T00:30:38.014Z,14.93
2019-05-01T00:33:06.926Z,15.18
2019-05-01T00:35:35.855Z,14.65
2019-05-01T00:38:04.753Z,16.75
2019-05-01T00:40:33.726Z,17.25
2019-05-01T00:43:02.713Z,16.85
2019-05-01T00:45:31.789Z,17.57
2019-05-01T00:48:00.845Z,16.93
2019-05-01T00:50:29.827Z,17.30
2019-05-01T00:52:58.691Z,18.30
2019-05-01T00:56:02.090Z,17.90
2019-05-01T00:58:48.952Z,19.27
2019-05-01T01:01:35.043Z,18.50
2019-05-01T01:04:03.969Z,17.30
2019-05-01T01:06:32.931Z,17.80
2019-05-01T01:09:03.784Z,18.42
2019-05-01T01:11:32.768Z,21.00
2019-05-01T01:14:01.638Z,20.72
2019-05-01T01:16:30.428Z,20.12
2019-05-01T01:18:59.430Z,21.40
2019-05-01T01:21:28.284Z,21.50
2019-05-01T01:23:57.619Z,20.80
2019-05-01T01:26:26.625Z,20.80
2019-05-01T01:28:55.611Z,20.85
2019-05-01T01:31:24.441Z,21.55
2019-05-01T01:33:53.386Z,21.40
2019-05-01T01:36:22.244Z,21.27
2019-05-01T01:38:51.161Z,21.23
2019-05-01T01:41:20.538Z,22.00
2019-05-01T01:44:11.744Z,22.75
2019-05-01T01:46:41.654Z,22.77
2019-05-01T01:49:10.563Z,23.47
2019-05-01T01:51:39.554Z,23.25
2019-05-01T01:54:08.523Z,25.47
2019-05-01T01:56:37.513Z,24.63
2019-05-01T01:59:07.821Z,25.25
2019-05-01T02:01:59.056Z,24.25
2019-05-01T02:04:45.832Z,26.52
2019-05-01T02:07:14.983Z,24.87
2019-05-01T02:09:43.869Z,26.30
2019-05-01T02:12:13.285Z,26.30
2019-05-01T02:14:42.152Z,26.25
2019-05-01T02:17:11.141Z,27.40
2019-05-01T02:19:40.096Z,28.15
2019-05-01T02:22:09.119Z,28.30
2019-05-01T02:24:38.426Z,27.80
2019-05-01T02:27:12.126Z,27.85
2019-05-01T02:29:46.372Z,27.27
2019-05-01T02:32:17.716Z,28.37
2019-05-01T02:34:47.509Z,28.87
2019-05-01T02:37:17.027Z,30.35
2019-05-01T02:39:48.309Z,30.55
2019-05-01T02:42:20.632Z,31.82
2019-05-01T02:44:52.678Z,29.80
2019-05-01T02:47:28.916Z,29.90
2019-05-01T02:50:03.874Z,29.30
2019-05-01T02:52:36.145Z,31.12
2019-05-01T02:55:10.863Z,30.85
2019-05-01T02:57:41.925Z,33.20
2019-05-01T03:00:12.841Z,30.67
2019-05-01T03:02:42.252Z,31.55
2019-05-01T03:05:11.324Z,30.90
2019-05-01T03:07:40.956Z,31.10
2019-05-01T03:10:10.685Z,31.33
2019-05-01T03:12:43.526Z,33.08
2019-05-01T03:15:14.049Z,34.60
2019-05-01T03:18:04.186Z,35.90
2019-05-01T03:20:51.836Z,35.00
2019-05-01T03:23:27.726Z,37.55
2019-05-01T03:25:57.387Z,36.13
2019-05-01T03:28:26.533Z,37.67
2019-05-01T03:30:55.730Z,36.40
2019-05-01T03:33:25.157Z,36.10
2019-05-01T03:35:54.476Z,35.13
2019-05-01T03:38:23.556Z,37.60
2019-05-01T03:40:52.808Z,37.28
2019-05-01T03:43:22.786Z,39.13
2019-05-01T03:45:52.864Z,37.00
2019-05-01T03:48:21.859Z,37.80
2019-05-01T03:50:50.995Z,38.83
2019-05-01T03:53:20.133Z,40.08
2019-05-01T03:55:49.725Z,40.92
2019-05-01T03:58:19.172Z,41.05
2019-05-01T04:01:16.659Z,39.30
2019-05-01T04:03:58.346Z,39.90
2019-05-01T04:06:27.836Z,41.58
2019-05-01T04:08:56.904Z,40.10
2019-05-01T04:11:26.201Z,40.73
2019-05-01T04:13:55.193Z,40.80
2019-05-01T04:16:24.157Z,39.80
2019-05-01T04:18:53.249Z,40.73
2019-05-01T04:21:23.917Z,41.92
2019-05-01T04:23:53.319Z,44.67
2019-05-01T04:26:23.100Z,38.90
2019-05-01T04:29:01.577Z,41.30
2019-05-01T04:31:40.927Z,41.02
2019-05-01T04:34:18.707Z,39.15
2019-05-01T04:36:51.145Z,38.02
2019-05-01T04:39:20.584Z,40.63
2019-05-01T04:41:49.705Z,42.30
2019-05-01T04:44:18.745Z,40.23
2019-05-01T04:46:48.669Z,34.58
2019-05-01T04:49:18.161Z,37.58
2019-05-01T04:51:47.271Z,36.88
2019-05-01T04:54:16.518Z,38.15
2019-05-01T04:56:45.918Z,38.90
2019-05-01T04:59:15.395Z,39.48
2019-05-01T05:01:56.836Z,39.00
2019-05-01T05:04:25.054Z,37.15
2019-05-01T05:06:54.855Z,40.55
2019-05-01T05:09:56.159Z,38.70
2019-05-01T05:12:48.801Z,39.33
2019-05-01T05:15:49.460Z,41.25
2019-05-01T05:18:18.395Z,39.15
2019-05-01T05:20:47.532Z,40.80
2019-05-01T05:23:16.974Z,38.50
2019-05-01T05:25:46.498Z,41.63
2019-05-01T05:28:15.861Z,42.98
2019-05-01T05:30:45.749Z,40.67
2019-05-01T05:33:18.871Z,40.00
2019-05-01T05:35:50.267Z,39.40
2019-05-01T05:38:27.630Z,42.25
2019-05-01T05:41:00.434Z,39.15
2019-05-01T05:43:30.381Z,42.17
2019-05-01T05:46:00.032Z,39.90
2019-05-01T05:48:29.064Z,40.75
2019-05-01T05:51:19.089Z,42.15
2019-05-01T05:53:50.666Z,43.43
2019-05-01T05:56:24.150Z,41.63
2019-05-01T05:58:59.304Z,42.70
2019-05-01T06:01:49.172Z,44.70
2019-05-01T06:04:45.315Z,46.13
2019-05-01T06:07:22.842Z,45.35
2019-05-01T06:10:18.462Z,44.05
2019-05-01T06:12:58.511Z,46.10
2019-05-01T06:15:49.105Z,45.20
2019-05-01T06:18:25.936Z,42.98
2019-05-01T06:21:12.842Z,47.03
2019-05-01T06:23:47.044Z,45.58
2019-05-01T06:26:37.453Z,47.25
2019-05-01T06:29:04.937Z,46.87
2019-05-01T06:31:34.138Z,45.00
2019-05-01T06:34:03.471Z,48.63
2019-05-01T06:36:33.481Z,50.53
2019-05-01T06:39:06.927Z,50.20
2019-05-01T06:41:42.787Z,48.85
2019-05-01T06:44:18.452Z,50.50
2019-05-01T06:47:19.063Z,49.30
2019-05-01T06:49:56.504Z,48.83
2019-05-01T06:52:29.437Z,52.30
2019-05-01T06:54:58.671Z,50.88
2019-05-01T06:57:28.942Z,51.18
2019-05-01T07:00:03.389Z,52.88
2019-05-01T07:02:34.912Z,54.05
2019-05-01T07:05:03.161Z,54.53
2019-05-01T07:07:33.306Z,57.48
2019-05-01T07:10:04.069Z,52.65
2019-05-01T07:12:34.084Z,57.88
2019-05-01T07:15:04.306Z,59.75
2019-05-01T07:17:33.764Z,51.33
2019-05-01T07:20:21.387Z,56.15
2019-05-01T07:22:50.510Z,54.25
2019-05-01T07:25:19.533Z,55.07
2019-05-01T07:27:48.623Z,60.00
2019-05-01T07:30:41.589Z,61.43
2019-05-01T07:33:12.070Z,61.53
2019-05-01T07:35:42.394Z,56.58
2019-05-01T07:38:11.625Z,53.45
2019-05-01T07:40:41.076Z,54.80
2019-05-01T07:43:19.089Z,57.30
2019-05-01T07:46:02.367Z,52.67
2019-05-01T07:48:41.074Z,56.75
2019-05-01T07:51:08.857Z,56.80
2019-05-01T07:53:38.985Z,57.73
2019-05-01T07:56:09.010Z,51.30
2019-05-01T07:58:38.803Z,53.25
2019-05-01T08:01:18.427Z,54.25
2019-05-01T08:03:47.131Z,49.20
2019-05-01T08:06:21.315Z,49.35
2019-05-01T08:08:46.693Z,53.55
2019-05-01T08:11:15.651Z,54.63
2019-05-01T08:13:44.567Z,53.33
2019-05-01T08:16:13.573Z,52.27
2019-05-01T08:18:53.589Z,55.12
2019-05-01T08:21:56.866Z,49.83
2019-05-01T08:24:24.741Z,47.53
2019-05-01T08:26:53.851Z,49.23
2019-05-01T08:29:42.167Z,49.33
2019-05-01T08:32:33.829Z,55.10
2019-05-01T08:35:06.709Z,49.90
2019-05-01T08:37:35.691Z,52.08
2019-05-01T08:40:05.131Z,51.40
2019-05-01T08:42:37.834Z,53.40
2019-05-01T08:45:30.423Z,52.23
2019-05-01T08:48:24.546Z,51.00
2019-05-01T08:50:54.593Z,50.50
2019-05-01T08:53:24.224Z,49.48
2019-05-01T08:55:53.209Z,52.30
2019-05-01T08:58:22.086Z,52.53
2019-05-01T09:00:51.138Z,52.15
2019-05-01T09:03:20.453Z,48.78
2019-05-01T09:05:52.210Z,51.30
2019-05-01T09:08:20.210Z,47.17
2019-05-01T09:10:49.734Z,48.70
2019-05-01T09:13:23.640Z,50.55
2019-05-01T09:15:49.841Z,48.15
2019-05-01T09:18:18.972Z,45.17
2019-05-01T09:20:50.402Z,45.23
2019-05-01T09:23:19.444Z,42.88
2019-05-01T09:26:06.789Z,40.57
2019-05-01T09:28:39.705Z,40.50
2019-05-01T09:31:08.444Z,40.40
2019-05-01T09:33:37.421Z,41.95
2019-05-01T09:36:06.636Z,44.60
2019-05-01T09:38:35.580Z,43.58
2019-05-01T09:41:05.055Z,41.50
2019-05-01T09:43:35.495Z,39.87
2019-05-01T09:46:04.675Z,38.15
2019-05-01T09:48:33.666Z,39.98
2019-05-01T09:51:27.796Z,41.40
2019-05-01T09:54:24.941Z,40.80
2019-05-01T09:56:53.838Z,41.13
2019-05-01T09:59:22.651Z,39.73
2019-05-01T10:01:57.190Z,42.43
2019-05-01T10:04:30.116Z,40.83
2019-05-01T10:06:56.672Z,41.00
2019-05-01T10:09:26.920Z,37.70
2019-05-01T10:11:56.130Z,39.67
2019-05-01T10:14:25.186Z,37.60
2019-05-01T10:16:54.205Z,37.95
2019-05-01T10:19:28.768Z,40.58
2019-05-01T10:21:58.088Z,34.53
2019-05-01T10:24:32.221Z,38.55
2019-05-01T10:27:01.549Z,39.38
2019-05-01T10:30:01.584Z,36.55
2019-05-01T10:32:44.580Z,33.63
2019-05-01T10:35:41.893Z,33.13
2019-05-01T10:38:04.762Z,32.88
2019-05-01T10:40:34.256Z,32.30
2019-05-01T10:43:03.263Z,32.98
2019-05-01T10:45:32.254Z,31.77
2019-05-01T10:48:01.261Z,32.15
2019-05-01T10:50:30.187Z,30.48
2019-05-01T10:52:59.268Z,31.60
2019-05-01T10:55:31.508Z,33.15
2019-05-01T10:58:03.220Z,31.15
2019-05-01T11:00:31.830Z,32.35
2019-05-01T11:03:00.757Z,31.60
2019-05-01T11:05:29.876Z,31.70
2019-05-01T11:07:58.847Z,29.67
2019-05-01T11:10:27.738Z,30.72
2019-05-01T11:13:08.415Z,30.80
2019-05-01T11:15:37.416Z,31.83
2019-05-01T11:18:07.173Z,30.85
2019-05-01T11:20:36.062Z,29.67
2019-05-01T11:23:06.141Z,28.20
2019-05-01T11:25:36.463Z,28.30
2019-05-01T11:28:05.543Z,28.90
2019-05-01T11:30:34.590Z,29.00
2019-05-01T11:33:15.410Z,29.00
2019-05-01T11:36:21.552Z,27.58
2019-05-01T11:38:55.459Z,25.23
2019-05-01T11:41:31.278Z,25.02
2019-05-01T11:44:00.350Z,24.70
2019-05-01T11:46:29.293Z,22.37
2019-05-01T11:48:58.169Z,23.38
2019-05-01T11:51:27.226Z,20.92
2019-05-01T11:53:56.254Z,21.33
2019-05-01T11:56:25.193Z,22.00
2019-05-01T11:58:54.115Z,21.52
2019-05-01T12:01:29.435Z,18.35
2019-05-01T12:03:58.533Z,20.52
2019-05-01T12:06:27.612Z,19.42
2019-05-01T12:08:56.526Z,19.83
2019-05-01T12:11:27.152Z,21.15
2019-05-01T12:13:56.078Z,20.02
2019-05-01T12:16:42.811Z,18.02
2019-05-01T12:19:12.785Z,18.65
2019-05-01T12:21:41.678Z,17.70
2019-05-01T12:24:10.564Z,16.30
2019-05-01T12:26:40.418Z,19.32
2019-05-01T12:29:10.503Z,19.42
2019-05-01T12:31:39.371Z,18.30
2019-05-01T12:34:08.347Z,19.12
2019-05-01T12:36:38.014Z,20.52
2019-05-01T12:39:08.806Z,20.52
2019-05-01T12:41:42.689Z,21.05
2019-05-01T12:44:14.172Z,19.10
2019-05-01T12:46:51.667Z,17.40
2019-05-01T12:49:20.659Z,17.15
2019-05-01T12:51:51.751Z,19.20
2019-05-01T12:54:39.944Z,19.30
2019-05-01T12:57:08.806Z,18.50
2019-05-01T12:59:37.684Z,18.20
2019-05-01T13:02:06.914Z,19.35
2019-05-01T13:04:36.024Z,18.60
2019-05-01T13:07:04.989Z,21.27
2019-05-01T13:09:33.894Z,18.52
2019-05-01T13:12:02.719Z,18.67
2019-05-01T13:14:31.584Z,17.27
2019-05-01T13:17:00.568Z,17.70
2019-05-01T13:19:29.675Z,16.67
2019-05-01T13:21:58.586Z,17.60
2019-05-01T13:24:27.587Z,16.93
2019-05-01T13:27:06.426Z,17.37
2019-05-01T13:29:42.717Z,14.28
2019-05-01T13:32:18.524Z,14.60
2019-05-01T13:34:47.489Z,14.73
2019-05-01T13:37:16.520Z,14.43
2019-05-01T13:39:45.734Z,14.55
2019-05-01T13:42:14.679Z,14.30
2019-05-01T13:44:43.769Z,14.33
2019-05-01T13:47:12.782Z,13.60
2019-05-01T13:49:41.655Z,13.45
2019-05-01T13:52:10.520Z,13.35
2019-05-01T13:54:39.451Z,11.50
2019-05-01T13:57:08.957Z,12.58
2019-05-01T13:59:37.794Z,12.60
2019-05-01T14:02:06.789Z,12.50
2019-05-01T14:04:35.976Z,11.78
2019-05-01T14:07:15.850Z,10.55
2019-05-01T14:09:36.067Z,11.12
2019-05-01T14:12:05.195Z,11.60
2019-05-01T14:14:34.127Z,12.60
2019-05-01T14:17:03.056Z,10.48
2019-05-01T14:19:32.928Z,11.88
2019-05-01T14:22:42.662Z,11.10
2019-05-01T14:25:11.811Z,9.88
2019-05-01T14:27:40.808Z,9.73
2019-05-01T14:30:11.411Z,10.10
2019-05-01T14:32:40.543Z,9.43
2019-05-01T14:35:09.938Z,9.30
2019-05-01T14:37:38.937Z,9.50
2019-05-01T14:40:08.399Z,8.78
2019-05-01T14:42:37.295Z,8.93
2019-05-01T14:45:08.669Z,9.33
2019-05-01T14:47:37.610Z,8.50
2019-05-01T14:50:07.064Z,8.80
2019-05-01T14:52:36.010Z,8.40
2019-05-01T14:55:10.073Z,7.60
2019-05-01T14:57:43.421Z,7.12
2019-05-01T15:00:17.336Z,7.50
2019-05-01T15:02:49.890Z,7.00
2019-05-01T15:05:25.386Z,7.20
2019-05-01T15:07:59.886Z,7.10
2019-05-01T15:10:33.179Z,7.70
2019-05-01T15:13:10.596Z,8.00
2019-05-01T15:15:53.180Z,7.45
2019-05-01T15:18:33.862Z,7.78
2019-05-01T15:21:06.708Z,9.70
2019-05-01T15:23:39.112Z,7.22
2019-05-01T15:26:12.053Z,7.20
2019-05-01T15:28:44.878Z,6.95
2019-05-01T15:31:17.694Z,7.08
2019-05-01T15:33:50.713Z,7.30
2019-05-01T15:36:23.284Z,6.55
2019-05-01T15:38:56.277Z,7.62
2019-05-01T15:41:47.638Z,6.25
2019-05-01T15:44:27.108Z,6.05
2019-05-01T15:46:59.894Z,5.70
2019-05-01T15:49:32.698Z,6.55
2019-05-01T15:52:05.358Z,4.70
2019-05-01T15:54:38.544Z,5.90
2019-05-01T15:57:13.011Z,4.95
2019-05-01T15:59:46.280Z,5.70
2019-05-01T16:02:19.404Z,5.62
2019-05-01T16:04:50.563Z,5.15
2019-05-01T16:07:23.800Z,6.47
2019-05-01T16:09:56.648Z,6.92
2019-05-01T16:12:43.650Z,6.33
2019-05-01T16:15:25.629Z,4.95
2019-05-01T16:17:58.929Z,4.28
2019-05-01T16:20:33.424Z,6.95
2019-05-01T16:23:06.429Z,5.47
2019-05-01T16:25:39.714Z,4.40
2019-05-01T16:28:12.160Z,5.57
2019-05-01T16:30:42.904Z,4.85
2019-05-01T16:33:15.764Z,5.47
2019-05-01T16:35:48.536Z,5.08
2019-05-01T16:38:27.943Z,5.72
2019-05-01T16:41:07.725Z,5.20
2019-05-01T16:43:41.084Z,5.33
2019-05-01T16:46:15.277Z,6.65
2019-05-01T16:48:48.562Z,5.90
2019-05-01T16:51:21.330Z,6.85
2019-05-01T16:53:54.688Z,3.87
2019-05-01T16:56:28.080Z,4.50
2019-05-01T16:59:03.921Z,4.75
2019-05-01T17:01:52.451Z,4.60
2019-05-01T17:04:47.161Z,5.78
2019-05-01T17:07:33.475Z,6.10
2019-05-01T17:10:15.167Z,5.22
2019-05-01T17:12:51.460Z,5.70
2019-05-01T17:15:30.854Z,5.35
2019-05-01T17:18:03.528Z,6.75
2019-05-01T17:20:36.393Z,4.65
2019-05-01T17:23:09.734Z,6.28
2019-05-01T17:25:42.448Z,6.05
2019-05-01T17:28:15.128Z,3.42
2019-05-01T17:30:56.231Z,3.80
2019-05-01T17:33:29.101Z,3.83
2019-05-01T17:36:01.284Z,3.50
2019-05-01T17:38:35.370Z,3.90
2019-05-01T17:41:08.195Z,4.75
2019-05-01T17:43:44.701Z,3.42
2019-05-01T17:46:14.507Z,3.70
2019-05-01T17:48:48.011Z,4.20
2019-05-01T17:51:20.856Z,3.85
2019-05-01T17:53:53.731Z,5.10
2019-05-01T17:56:28.543Z,4.65
2019-05-01T17:59:01.441Z,3.85
2019-05-01T18:02:11.493Z,4.45
2019-05-01T18:05:01.357Z,4.50
2019-05-01T18:07:34.994Z,4.47
2019-05-01T18:10:08.243Z,5.47
2019-05-01T18:12:41.516Z,5.03
2019-05-01T18:15:14.557Z,5.00
2019-05-01T18:17:47.306Z,5.42
2019-05-01T18:20:25.270Z,5.65
2019-05-01T18:23:14.694Z,4.90
2019-05-01T18:25:55.133Z,5.53
2019-05-01T18:29:05.744Z,6.10
2019-05-01T18:31:35.459Z,6.70
2019-05-01T18:34:09.108Z,6.78
2019-05-01T18:36:46.613Z,8.13
2019-05-01T18:39:25.880Z,6.62
2019-05-01T18:41:56.550Z,7.55
2019-05-01T18:44:25.953Z,6.10
2019-05-01T18:46:55.113Z,6.50
2019-05-01T18:49:24.354Z,8.20
2019-05-01T18:51:53.476Z,9.25
2019-05-01T18:54:22.922Z,7.00
2019-05-01T18:56:54.647Z,6.30
2019-05-01T18:59:23.379Z,6.90
2019-05-01T19:01:53.107Z,8.25
2019-05-01T19:04:23.475Z,8.30
2019-05-01T19:06:53.661Z,8.43
2019-05-01T19:09:29.882Z,9.30
2019-05-01T19:11:53.799Z,8.58
2019-05-01T19:14:23.617Z,9.30
2019-05-01T19:16:53.846Z,8.43
2019-05-01T19:19:23.246Z,7.35
2019-05-01T19:21:52.113Z,8.70
2019-05-01T19:24:21.435Z,8.55
2019-05-01T19:26:50.584Z,10.63
2019-05-01T19:29:19.951Z,9.15
2019-05-01T19:31:49.367Z,9.10
2019-05-01T19:34:18.505Z,8.33
2019-05-01T19:36:47.765Z,8.60
2019-05-01T19:39:17.831Z,8.43
2019-05-01T19:41:49.032Z,8.40
2019-05-01T19:44:18.698Z,8.50
2019-05-01T19:46:47.952Z,7.10
2019-05-01T19:49:17.089Z,8.20
2019-05-01T19:51:46.219Z,9.28
2019-05-01T19:54:15.254Z,8.23
2019-05-01T19:56:44.106Z,8.00
2019-05-01T19:59:13.220Z,9.10
2019-05-01T20:01:44.691Z,9.08
2019-05-01T20:04:15.070Z,7.57
2019-05-01T20:06:44.035Z,8.67
2019-05-01T20:09:13.265Z,8.35
2019-05-01T20:11:42.515Z,8.35
2019-05-01T20:14:11.550Z,7.85
2019-05-01T20:16:40.804Z,7.92
2019-05-01T20:19:09.862Z,7.70
2019-05-01T20:21:41.670Z,8.10
2019-05-01T20:24:10.635Z,9.40
2019-05-01T20:26:39.989Z,8.60
2019-05-01T20:29:08.985Z,8.05
2019-05-01T20:31:39.219Z,7.35
2019-05-01T20:34:11.949Z,8.30
2019-05-01T20:36:39.396Z,8.30
2019-05-01T20:39:09.023Z,8.35
2019-05-01T20:41:38.118Z,9.30
2019-05-01T20:44:07.172Z,8.93
2019-05-01T20:46:36.609Z,8.50
2019-05-01T20:49:06.631Z,8.48
2019-05-01T20:51:35.758Z,8.88
2019-05-01T20:54:04.781Z,9.10
2019-05-01T20:56:38.619Z,9.33
2019-05-01T20:59:07.512Z,8.70
2019-05-01T21:01:36.579Z,8.43
2019-05-01T21:04:28.342Z,8.40
2019-05-01T21:07:19.903Z,8.85
2019-05-01T21:09:56.871Z,8.38
2019-05-01T21:12:20.735Z,8.30
2019-05-01T21:14:50.963Z,8.28
2019-05-01T21:17:22.887Z,8.40
2019-05-01T21:19:54.332Z,8.80
2019-05-01T21:22:23.432Z,8.90
2019-05-01T21:24:53.264Z,8.28
2019-05-01T21:27:24.248Z,9.68
2019-05-01T21:29:53.426Z,9.78
2019-05-01T21:32:23.608Z,8.68
2019-05-01T21:34:53.719Z,9.50
2019-05-01T21:37:22.800Z,9.78
2019-05-01T21:39:53.669Z,9.75
2019-05-01T21:42:24.500Z,10.20
2019-05-01T21:44:53.305Z,10.72
2019-05-01T21:47:23.680Z,11.83
2019-05-01T21:49:53.129Z,10.58
2019-05-01T21:52:26.793Z,11.20
2019-05-01T21:54:55.333Z,11.25
2019-05-01T21:57:29.598Z,12.00
2019-05-01T21:59:56.002Z,11.50
2019-05-01T22:02:24.893Z,11.80
2019-05-01T22:04:53.807Z,11.43
2019-05-01T22:07:23.815Z,13.25
2019-05-01T22:09:53.500Z,13.03
2019-05-01T22:12:23.080Z,14.20
2019-05-01T22:14:56.769Z,12.70
2019-05-01T22:17:33.498Z,13.98
2019-05-01T22:20:02.648Z,13.65
2019-05-01T22:22:44.058Z,13.35
2019-05-01T22:25:32.038Z,14.05
2019-05-01T22:28:07.715Z,14.30
2019-05-01T22:30:46.188Z,15.23
2019-05-01T22:33:15.349Z,15.83
2019-05-01T22:35:46.571Z,15.60
2019-05-01T22:38:15.476Z,16.23
2019-05-01T22:41:06.497Z,16.30
2019-05-01T22:43:32.509Z,18.40
2019-05-01T22:46:07.078Z,16.48
2019-05-01T22:48:36.000Z,16.37
2019-05-01T22:51:17.653Z,21.13
2019-05-01T22:53:49.171Z,19.95
2019-05-01T22:56:17.997Z,20.57
2019-05-01T22:58:46.842Z,20.35
2019-05-01T23:01:18.109Z,21.42
2019-05-01T23:03:55.006Z,19.70
2019-05-01T23:06:24.426Z,17.45
2019-05-01T23:08:53.378Z,20.15
2019-05-01T23:11:24.147Z,20.92
2019-05-01T23:13:53.164Z,17.98
2019-05-01T23:16:23.691Z,17.10
2019-05-01T23:18:53.240Z,17.05
2019-05-01T23:21:22.381Z,17.27
2019-05-01T23:23:51.545Z,17.48
2019-05-01T23:26:20.632Z,16.42
2019-05-01T23:28:49.501Z,18.30
2019-05-01T23:31:18.471Z,19.62
2019-05-01T23:33:50.669Z,18.80
2019-05-01T23:36:23.788Z,17.98
2019-05-01T23:38:48.546Z,18.57
2019-05-01T23:41:17.493Z,17.90
2019-05-01T23:43:46.400Z,16.75
2019-05-01T23:46:15.358Z,19.45
2019-05-01T23:48:44.355Z,18.92
2019-05-01T23:51:13.207Z,18.42
2019-05-01T23:53:44.265Z,19.55
2019-05-01T23:56:12.651Z,18.67
2019-05-01T23:58:41.551Z,17.73
